aviador You're here:

MMZC Decoded Metar

ZACATECAS in MEXICO
Report Time2017-09-22 10:42:00
UTC Time2017-09-22 11:48:20
Flight Rules vfr VFR
WindCalm
Visibility9999 m
Phenomena:N/A
Clouds:Scattered 200 Hf
Expected CloudBase > 1,600 ft AGL from Temp-Dew spread
CeilingNone
Temp11°C (ISA +10)
Dew Point07°C (77% RH)
AAT10.3°C
QNH1022 hPa
Density Alt8,182 ft
Elevation7,142 ft
Report Wrong Elevation
Raw Report
METAR MMZC 221042Z 00000KT 8SM SCT200 11/07 A3019 RMK 8/008 RTS=

Extra information for MMZC:More info

Metar Taf Metar & Taf Last 4 Metars F.Rules Stats Wind Profile Meteogram Temp Stats Airport Information Weather charts Add Link Nearby VenuesMetar ALERT Operation Metar Decoded Social comments